UTDD

Dushanbe Airport

Dushanbe, Tajikistan
METAR UTDD 221700Z 06003MPS 9999 NSC 23/06 Q1008 R09/D NOSIG RMK QFE688/0918
Observed Flight Rules
Jun-22 @ 17:00 UTC (15 minutes ago) Visual Flight Rules
Wind Visibility Clouds
60° at 6 knots 10,000+ meters
  • Clear skies
Temperatures Readings
Current 23°C / 73°F
Dewpoint 6°C / 43°F
Humidity 33%
Altimeter 29.76" Hg
Pressure 1008 hPa
Elevation 803
METAR UTDD 221700Z 06003MPS 9999 NSC 23/06 Q1008 R09/D NOSIG RMK QFE688/0918
Observed Flight Rules
Jun-22 @ 17:00 UTC
(15 minutes ago)
VFR
Wind Visibility
60° at 6 knots 10,000+ meters
Clouds
  • Clear skies
Temperature Dewpoint
23°C / 73°F 6°C / 43°F
Humidity Altimeter Pressure
33% 29.76" Hg 1008 hPa